CheckWX is a tool to help pilots better visualize weather data.  It is not intended as a substitute for an official pre-flight weather briefing.

13:06:07 UTC

KEAU METAR
Chippewa Valley Regional Airport
Eau Claire, Wisconsin, USA
Current

1 hour ago

KEAU 241156Z 10008G17KT 10SM BKN033 OVC043 11/08 A3006 RMK AO2 PRESRR SLP181 T01110083 10117 20089 55014
Observed
May-24 @ 11:56 UTC
Wind
  • 100° at 8 KTS
  • Gusting to 17 KTS
Visibility
10 SM
Flight Rules
VFR
Cloud Levels
  • Broken at 3,300' AGL
  • Overcast at 4,300' AGL
Temperature
11°C / 52°F
Dewpoint
C / 46°F
Humidity
82%
Altimeter
30.06" Hg
Pressure
1017.92 hPa
Previous

2 hours ago

KEAU 241056Z 12010KT 10SM SCT037 OVC100 11/08 A3005 RMK AO2 SLP178 T01110083
Observed
May-24 @ 10:56 UTC
Wind
  • 120° at 10 KTS
Visibility
10 SM
Flight Rules
VFR
Cloud Levels
  • Scattered at 3,700' AGL
  • Overcast at 10,000' AGL
Temperature
11°C / 52°F
Dewpoint
C / 46°F
Humidity
82%
Altimeter
30.05" Hg
Pressure
1017.62 hPa
Previous

3 hours ago

KEAU 240956Z AUTO 09010KT 10SM OVC085 12/08 A3008 RMK AO2 SLP188 T01170078
Observed
May-24 @ 09:56 UTC
Wind
  • 090° at 10 KTS
Visibility
10 SM
Flight Rules
VFR
Cloud Levels
  • Overcast at 8,500' AGL
Temperature
12°C / 54°F
Dewpoint
C / 46°F
Humidity
77%
Altimeter
30.08" Hg
Pressure
1018.62 hPa